sensor_id;sensor_type;location;lat;lon;timestamp;temperature;humidity
69589;SHT31;56792;50.644;17.984;2023-11-22T00:00:40;0.88;89.67
69589;SHT31;56792;50.644;17.984;2023-11-22T00:03:12;0.89;89.63
69589;SHT31;56792;50.644;17.984;2023-11-22T00:05:43;0.90;89.69
69589;SHT31;56792;50.644;17.984;2023-11-22T00:08:14;0.90;89.63
69589;SHT31;56792;50.644;17.984;2023-11-22T00:10:45;0.89;89.66
69589;SHT31;56792;50.644;17.984;2023-11-22T00:13:16;0.86;89.54
69589;SHT31;56792;50.644;17.984;2023-11-22T00:15:47;0.87;89.73
69589;SHT31;56792;50.644;17.984;2023-11-22T00:18:18;0.86;89.65
69589;SHT31;56792;50.644;17.984;2023-11-22T00:20:49;0.82;89.64
69589;SHT31;56792;50.644;17.984;2023-11-22T00:23:21;0.77;89.71
69589;SHT31;56792;50.644;17.984;2023-11-22T00:25:55;0.72;89.59
69589;SHT31;56792;50.644;17.984;2023-11-22T00:28:26;0.72;89.75
69589;SHT31;56792;50.644;17.984;2023-11-22T00:30:57;0.69;89.79
69589;SHT31;56792;50.644;17.984;2023-11-22T00:33:28;0.69;89.88
69589;SHT31;56792;50.644;17.984;2023-11-22T00:36:01;0.68;89.93
69589;SHT31;56792;50.644;17.984;2023-11-22T00:38:34;0.65;89.82
69589;SHT31;56792;50.644;17.984;2023-11-22T00:41:06;0.61;89.79
69589;SHT31;56792;50.644;17.984;2023-11-22T00:43:37;0.60;89.80
69589;SHT31;56792;50.644;17.984;2023-11-22T00:46:08;0.55;89.66
69589;SHT31;56792;50.644;17.984;2023-11-22T00:48:39;0.51;89.77
69589;SHT31;56792;50.644;17.984;2023-11-22T00:51:11;0.48;89.82
69589;SHT31;56792;50.644;17.984;2023-11-22T00:53:42;0.48;89.77
69589;SHT31;56792;50.644;17.984;2023-11-22T00:56:13;0.49;89.78
69589;SHT31;56792;50.644;17.984;2023-11-22T00:58:44;0.49;89.72
69589;SHT31;56792;50.644;17.984;2023-11-22T01:01:16;0.50;89.86
69589;SHT31;56792;50.644;17.984;2023-11-22T01:03:47;0.47;89.53
69589;SHT31;56792;50.644;17.984;2023-11-22T01:06:19;0.47;89.62
69589;SHT31;56792;50.644;17.984;2023-11-22T01:08:50;0.45;89.65
69589;SHT31;56792;50.644;17.984;2023-11-22T01:11:21;0.45;89.53
69589;SHT31;56792;50.644;17.984;2023-11-22T01:13:52;0.45;89.68
69589;SHT31;56792;50.644;17.984;2023-11-22T01:16:24;0.50;89.73
69589;SHT31;56792;50.644;17.984;2023-11-22T01:18:55;0.47;89.43
69589;SHT31;56792;50.644;17.984;2023-11-22T01:21:27;0.45;89.46
69589;SHT31;56792;50.644;17.984;2023-11-22T01:23:58;0.42;89.19
69589;SHT31;56792;50.644;17.984;2023-11-22T01:26:30;0.44;89.44
69589;SHT31;56792;50.644;17.984;2023-11-22T01:29:01;0.47;89.57
69589;SHT31;56792;50.644;17.984;2023-11-22T01:31:32;0.47;89.43
69589;SHT31;56792;50.644;17.984;2023-11-22T01:34:03;0.43;89.14
69589;SHT31;56792;50.644;17.984;2023-11-22T01:36:34;0.40;89.03
69589;SHT31;56792;50.644;17.984;2023-11-22T01:39:11;0.36;89.02
69589;SHT31;56792;50.644;17.984;2023-11-22T01:41:45;0.35;89.22
69589;SHT31;56792;50.644;17.984;2023-11-22T01:44:16;0.37;89.31
69589;SHT31;56792;50.644;17.984;2023-11-22T01:46:47;0.40;89.50
69589;SHT31;56792;50.644;17.984;2023-11-22T01:49:18;0.41;89.44
69589;SHT31;56792;50.644;17.984;2023-11-22T01:51:50;0.43;89.51
69589;SHT31;56792;50.644;17.984;2023-11-22T01:54:22;0.46;89.51
69589;SHT31;56792;50.644;17.984;2023-11-22T01:56:55;0.48;89.41
69589;SHT31;56792;50.644;17.984;2023-11-22T01:59:26;0.47;89.16
69589;SHT31;56792;50.644;17.984;2023-11-22T02:01:59;0.47;89.24
69589;SHT31;56792;50.644;17.984;2023-11-22T02:04:30;0.47;89.11
69589;SHT31;56792;50.644;17.984;2023-11-22T02:07:01;0.47;89.12
69589;SHT31;56792;50.644;17.984;2023-11-22T02:09:32;0.47;89.10
69589;SHT31;56792;50.644;17.984;2023-11-22T02:12:04;0.48;89.18
69589;SHT31;56792;50.644;17.984;2023-11-22T02:14:37;0.50;89.22
69589;SHT31;56792;50.644;17.984;2023-11-22T02:17:09;0.51;89.32
69589;SHT31;56792;50.644;17.984;2023-11-22T02:19:41;0.54;89.35
69589;SHT31;56792;50.644;17.984;2023-11-22T02:22:13;0.56;89.38
69589;SHT31;56792;50.644;17.984;2023-11-22T02:24:44;0.58;89.34
69589;SHT31;56792;50.644;17.984;2023-11-22T02:27:15;0.59;89.31
69589;SHT31;56792;50.644;17.984;2023-11-22T02:29:46;0.60;89.42
69589;SHT31;56792;50.644;17.984;2023-11-22T02:32:18;0.60;89.30
69589;SHT31;56792;50.644;17.984;2023-11-22T02:34:49;0.59;89.25
69589;SHT31;56792;50.644;17.984;2023-11-22T02:37:21;0.59;89.26
69589;SHT31;56792;50.644;17.984;2023-11-22T02:39:54;0.61;89.29
69589;SHT31;56792;50.644;17.984;2023-11-22T02:42:32;0.65;89.32
69589;SHT31;56792;50.644;17.984;2023-11-22T02:45:05;0.64;89.13
69589;SHT31;56792;50.644;17.984;2023-11-22T02:47:38;0.62;89.04
69589;SHT31;56792;50.644;17.984;2023-11-22T02:50:12;0.62;89.17
69589;SHT31;56792;50.644;17.984;2023-11-22T02:52:44;0.62;89.10
69589;SHT31;56792;50.644;17.984;2023-11-22T02:55:15;0.59;88.94
69589;SHT31;56792;50.644;17.984;2023-11-22T02:57:46;0.58;88.94
69589;SHT31;56792;50.644;17.984;2023-11-22T03:00:18;0.57;88.94
69589;SHT31;56792;50.644;17.984;2023-11-22T03:02:50;0.55;88.95
69589;SHT31;56792;50.644;17.984;2023-11-22T03:05:22;0.51;88.54
69589;SHT31;56792;50.644;17.984;2023-11-22T03:07:53;0.49;88.74
69589;SHT31;56792;50.644;17.984;2023-11-22T03:10:24;0.50;88.75
69589;SHT31;56792;50.644;17.984;2023-11-22T03:12:56;0.51;88.82
69589;SHT31;56792;50.644;17.984;2023-11-22T03:15:27;0.54;88.91
69589;SHT31;56792;50.644;17.984;2023-11-22T03:17:59;0.51;88.54
69589;SHT31;56792;50.644;17.984;2023-11-22T03:20:32;0.48;88.51
69589;SHT31;56792;50.644;17.984;2023-11-22T03:23:04;0.47;88.43
69589;SHT31;56792;50.644;17.984;2023-11-22T03:25:37;0.47;88.60
69589;SHT31;56792;50.644;17.984;2023-11-22T03:28:08;0.46;88.50
69589;SHT31;56792;50.644;17.984;2023-11-22T03:30:40;0.45;88.44
69589;SHT31;56792;50.644;17.984;2023-11-22T03:33:12;0.45;88.48
69589;SHT31;56792;50.644;17.984;2023-11-22T03:35:43;0.46;88.32
69589;SHT31;56792;50.644;17.984;2023-11-22T03:38:14;0.43;88.41
69589;SHT31;56792;50.644;17.984;2023-11-22T03:40:46;0.45;88.70
69589;SHT31;56792;50.644;17.984;2023-11-22T03:43:17;0.48;88.73
69589;SHT31;56792;50.644;17.984;2023-11-22T03:45:48;0.49;88.74
69589;SHT31;56792;50.644;17.984;2023-11-22T03:48:19;0.46;88.64
69589;SHT31;56792;50.644;17.984;2023-11-22T03:50:52;0.45;88.59
69589;SHT31;56792;50.644;17.984;2023-11-22T03:53:23;0.41;88.53
69589;SHT31;56792;50.644;17.984;2023-11-22T03:55:54;0.39;88.57
69589;SHT31;56792;50.644;17.984;2023-11-22T03:58:26;0.38;88.70
69589;SHT31;56792;50.644;17.984;2023-11-22T04:00:57;0.39;88.64
69589;SHT31;56792;50.644;17.984;2023-11-22T04:03:29;0.37;88.55
69589;SHT31;56792;50.644;17.984;2023-11-22T04:06:00;0.36;88.63
69589;SHT31;56792;50.644;17.984;2023-11-22T04:08:31;0.37;88.74
69589;SHT31;56792;50.644;17.984;2023-11-22T04:11:02;0.35;88.56
69589;SHT31;56792;50.644;17.984;2023-11-22T04:13:34;0.29;88.45
69589;SHT31;56792;50.644;17.984;2023-11-22T04:16:05;0.25;88.57
69589;SHT31;56792;50.644;17.984;2023-11-22T04:18:39;0.22;88.59
69589;SHT31;56792;50.644;17.984;2023-11-22T04:21:10;0.23;88.66
69589;SHT31;56792;50.644;17.984;2023-11-22T04:23:41;0.22;88.61
69589;SHT31;56792;50.644;17.984;2023-11-22T04:26:12;0.23;88.68
69589;SHT31;56792;50.644;17.984;2023-11-22T04:28:43;0.26;88.80
69589;SHT31;56792;50.644;17.984;2023-11-22T04:31:14;0.28;88.80
69589;SHT31;56792;50.644;17.984;2023-11-22T04:33:45;0.29;88.70
69589;SHT31;56792;50.644;17.984;2023-11-22T04:36:16;0.28;88.64
69589;SHT31;56792;50.644;17.984;2023-11-22T04:38:48;0.29;88.59
69589;SHT31;56792;50.644;17.984;2023-11-22T04:41:20;0.27;88.47
69589;SHT31;56792;50.644;17.984;2023-11-22T04:43:52;0.29;88.62
69589;SHT31;56792;50.644;17.984;2023-11-22T04:46:23;0.30;88.48
69589;SHT31;56792;50.644;17.984;2023-11-22T04:48:54;0.29;88.51
69589;SHT31;56792;50.644;17.984;2023-11-22T04:51:25;0.29;88.50
69589;SHT31;56792;50.644;17.984;2023-11-22T04:53:56;0.29;88.40
69589;SHT31;56792;50.644;17.984;2023-11-22T04:56:27;0.28;88.29
69589;SHT31;56792;50.644;17.984;2023-11-22T04:58:58;0.27;88.24
69589;SHT31;56792;50.644;17.984;2023-11-22T05:01:32;0.25;87.99
69589;SHT31;56792;50.644;17.984;2023-11-22T05:04:03;0.17;87.52
69589;SHT31;56792;50.644;17.984;2023-11-22T05:06:36;0.13;87.73
69589;SHT31;56792;50.644;17.984;2023-11-22T05:09:07;0.11;87.54
69589;SHT31;56792;50.644;17.984;2023-11-22T05:11:40;0.04;87.40
69589;SHT31;56792;50.644;17.984;2023-11-22T05:14:12;0.03;87.50
69589;SHT31;56792;50.644;17.984;2023-11-22T05:16:43;0.02;87.53
69589;SHT31;56792;50.644;17.984;2023-11-22T05:19:14;0.03;87.66
69589;SHT31;56792;50.644;17.984;2023-11-22T05:21:45;0.05;87.74
69589;SHT31;56792;50.644;17.984;2023-11-22T05:24:16;0.05;87.57
69589;SHT31;56792;50.644;17.984;2023-11-22T05:26:47;0.05;87.71
69589;SHT31;56792;50.644;17.984;2023-11-22T05:29:18;0.09;87.74
69589;SHT31;56792;50.644;17.984;2023-11-22T05:31:49;0.06;87.37
69589;SHT31;56792;50.644;17.984;2023-11-22T05:34:20;0.04;87.43
69589;SHT31;56792;50.644;17.984;2023-11-22T05:36:51;0.03;87.45
69589;SHT31;56792;50.644;17.984;2023-11-22T05:39:22;0.05;87.50
69589;SHT31;56792;50.644;17.984;2023-11-22T05:41:53;0.02;86.96
69589;SHT31;56792;50.644;17.984;2023-11-22T05:44:24;-0.03;86.84
69589;SHT31;56792;50.644;17.984;2023-11-22T05:46:55;-0.04;87.16
69589;SHT31;56792;50.644;17.984;2023-11-22T05:49:26;-0.01;87.34
69589;SHT31;56792;50.644;17.984;2023-11-22T05:51:57;0.03;87.50
69589;SHT31;56792;50.644;17.984;2023-11-22T05:54:28;0.07;87.58
69589;SHT31;56792;50.644;17.984;2023-11-22T05:56:59;0.08;87.46
69589;SHT31;56792;50.644;17.984;2023-11-22T05:59:30;0.05;87.24
69589;SHT31;56792;50.644;17.984;2023-11-22T06:02:01;0.03;87.26
69589;SHT31;56792;50.644;17.984;2023-11-22T06:04:33;0.02;87.02
69589;SHT31;56792;50.644;17.984;2023-11-22T06:07:04;0.00;87.14
69589;SHT31;56792;50.644;17.984;2023-11-22T06:09:35;0.00;87.21
69589;SHT31;56792;50.644;17.984;2023-11-22T06:12:06;0.02;87.25
69589;SHT31;56792;50.644;17.984;2023-11-22T06:14:37;0.03;87.25
69589;SHT31;56792;50.644;17.984;2023-11-22T06:17:08;0.00;86.91
69589;SHT31;56792;50.644;17.984;2023-11-22T06:19:40;-0.04;87.02
69589;SHT31;56792;50.644;17.984;2023-11-22T06:22:11;-0.06;86.87
69589;SHT31;56792;50.644;17.984;2023-11-22T06:24:43;-0.08;87.07
69589;SHT31;56792;50.644;17.984;2023-11-22T06:27:14;-0.08;87.13
69589;SHT31;56792;50.644;17.984;2023-11-22T06:29:45;-0.04;87.32
69589;SHT31;56792;50.644;17.984;2023-11-22T06:32:16;-0.05;86.94
69589;SHT31;56792;50.644;17.984;2023-11-22T06:34:47;-0.06;87.04
69589;SHT31;56792;50.644;17.984;2023-11-22T06:37:19;-0.04;87.18
69589;SHT31;56792;50.644;17.984;2023-11-22T06:39:50;-0.02;86.99
69589;SHT31;56792;50.644;17.984;2023-11-22T06:42:21;-0.06;86.74
69589;SHT31;56792;50.644;17.984;2023-11-22T06:44:52;-0.06;86.98
69589;SHT31;56792;50.644;17.984;2023-11-22T06:47:27;-0.05;86.98
69589;SHT31;56792;50.644;17.984;2023-11-22T06:49:58;-0.02;87.14
69589;SHT31;56792;50.644;17.984;2023-11-22T06:52:30;0.04;87.23
69589;SHT31;56792;50.644;17.984;2023-11-22T06:55:01;0.08;87.12
69589;SHT31;56792;50.644;17.984;2023-11-22T06:57:34;0.10;86.71
69589;SHT31;56792;50.644;17.984;2023-11-22T07:00:06;0.11;86.69
69589;SHT31;56792;50.644;17.984;2023-11-22T07:02:40;0.13;86.73
69589;SHT31;56792;50.644;17.984;2023-11-22T07:05:11;0.13;86.61
69589;SHT31;56792;50.644;17.984;2023-11-22T07:07:42;0.12;86.29
69589;SHT31;56792;50.644;17.984;2023-11-22T07:10:15;0.12;86.39
69589;SHT31;56792;50.644;17.984;2023-11-22T07:12:47;0.14;86.44
69589;SHT31;56792;50.644;17.984;2023-11-22T07:15:18;0.10;86.07
69589;SHT31;56792;50.644;17.984;2023-11-22T07:17:49;0.07;86.25
69589;SHT31;56792;50.644;17.984;2023-11-22T07:20:20;0.06;86.13
69589;SHT31;56792;50.644;17.984;2023-11-22T07:22:53;0.06;86.16
69589;SHT31;56792;50.644;17.984;2023-11-22T07:25:25;0.04;85.87
69589;SHT31;56792;50.644;17.984;2023-11-22T07:27:55;0.01;85.87
69589;SHT31;56792;50.644;17.984;2023-11-22T07:30:26;0.00;85.96
69589;SHT31;56792;50.644;17.984;2023-11-22T07:33:00;0.04;86.25
69589;SHT31;56792;50.644;17.984;2023-11-22T07:35:32;0.04;85.90
69589;SHT31;56792;50.644;17.984;2023-11-22T07:38:03;0.04;85.85
69589;SHT31;56792;50.644;17.984;2023-11-22T07:40:37;0.05;85.82
69589;SHT31;56792;50.644;17.984;2023-11-22T07:43:09;0.07;85.74
69589;SHT31;56792;50.644;17.984;2023-11-22T07:45:40;0.14;86.09
69589;SHT31;56792;50.644;17.984;2023-11-22T07:48:13;0.17;86.03
69589;SHT31;56792;50.644;17.984;2023-11-22T07:50:44;0.20;86.10
69589;SHT31;56792;50.644;17.984;2023-11-22T07:53:15;0.19;85.54
69589;SHT31;56792;50.644;17.984;2023-11-22T07:55:46;0.16;85.37
69589;SHT31;56792;50.644;17.984;2023-11-22T07:58:18;0.12;85.34
69589;SHT31;56792;50.644;17.984;2023-11-22T08:00:49;0.13;85.58
69589;SHT31;56792;50.644;17.984;2023-11-22T08:03:22;0.14;85.48
69589;SHT31;56792;50.644;17.984;2023-11-22T08:05:53;0.14;85.47
69589;SHT31;56792;50.644;17.984;2023-11-22T08:08:24;0.17;85.76
69589;SHT31;56792;50.644;17.984;2023-11-22T08:10:55;0.18;85.25
69589;SHT31;56792;50.644;17.984;2023-11-22T08:13:28;0.13;84.67
69589;SHT31;56792;50.644;17.984;2023-11-22T08:15:59;0.09;84.98
69589;SHT31;56792;50.644;17.984;2023-11-22T08:18:30;0.11;85.40
69589;SHT31;56792;50.644;17.984;2023-11-22T08:21:02;0.14;85.43
69589;SHT31;56792;50.644;17.984;2023-11-22T08:23:34;0.14;85.25
69589;SHT31;56792;50.644;17.984;2023-11-22T08:26:06;0.15;85.33
69589;SHT31;56792;50.644;17.984;2023-11-22T08:28:38;0.20;85.49
69589;SHT31;56792;50.644;17.984;2023-11-22T08:31:09;0.24;85.39
69589;SHT31;56792;50.644;17.984;2023-11-22T08:33:43;0.28;85.59
69589;SHT31;56792;50.644;17.984;2023-11-22T08:36:14;0.34;85.77
69589;SHT31;56792;50.644;17.984;2023-11-22T08:38:45;0.40;85.68
69589;SHT31;56792;50.644;17.984;2023-11-22T08:41:16;0.43;85.52
69589;SHT31;56792;50.644;17.984;2023-11-22T08:43:48;0.46;85.64
69589;SHT31;56792;50.644;17.984;2023-11-22T08:46:19;0.47;85.24
69589;SHT31;56792;50.644;17.984;2023-11-22T08:48:50;0.47;85.23
69589;SHT31;56792;50.644;17.984;2023-11-22T08:51:23;0.40;84.62
69589;SHT31;56792;50.644;17.984;2023-11-22T08:53:54;0.34;84.66
69589;SHT31;56792;50.644;17.984;2023-11-22T08:56:25;0.28;84.69
69589;SHT31;56792;50.644;17.984;2023-11-22T08:58:56;0.22;84.53
69589;SHT31;56792;50.644;17.984;2023-11-22T09:01:27;0.17;84.53
69589;SHT31;56792;50.644;17.984;2023-11-22T09:03:58;0.14;84.65
69589;SHT31;56792;50.644;17.984;2023-11-22T09:06:30;0.13;84.79
69589;SHT31;56792;50.644;17.984;2023-11-22T09:09:01;0.16;84.78
69589;SHT31;56792;50.644;17.984;2023-11-22T09:11:33;0.16;84.48
69589;SHT31;56792;50.644;17.984;2023-11-22T09:14:04;0.17;84.42
69589;SHT31;56792;50.644;17.984;2023-11-22T09:16:37;0.17;84.50
69589;SHT31;56792;50.644;17.984;2023-11-22T09:19:08;0.18;84.62
69589;SHT31;56792;50.644;17.984;2023-11-22T09:21:39;0.21;84.89
69589;SHT31;56792;50.644;17.984;2023-11-22T09:24:10;0.27;84.93
69589;SHT31;56792;50.644;17.984;2023-11-22T09:26:42;0.33;85.15
69589;SHT31;56792;50.644;17.984;2023-11-22T09:29:14;0.38;85.16
69589;SHT31;56792;50.644;17.984;2023-11-22T09:31:45;0.43;85.19
69589;SHT31;56792;50.644;17.984;2023-11-22T09:34:18;0.49;85.25
69589;SHT31;56792;50.644;17.984;2023-11-22T09:36:50;0.52;85.11
69589;SHT31;56792;50.644;17.984;2023-11-22T09:39:21;0.55;85.01
69589;SHT31;56792;50.644;17.984;2023-11-22T09:41:54;0.55;84.86
69589;SHT31;56792;50.644;17.984;2023-11-22T09:44:26;0.58;84.89
69589;SHT31;56792;50.644;17.984;2023-11-22T09:46:57;0.57;84.70
69589;SHT31;56792;50.644;17.984;2023-11-22T09:49:29;0.60;84.87
69589;SHT31;56792;50.644;17.984;2023-11-22T09:52:01;0.61;84.60
69589;SHT31;56792;50.644;17.984;2023-11-22T09:54:37;0.56;84.10
69589;SHT31;56792;50.644;17.984;2023-11-22T09:57:09;0.49;83.86
69589;SHT31;56792;50.644;17.984;2023-11-22T09:59:44;0.46;83.82
69589;SHT31;56792;50.644;17.984;2023-11-22T10:02:18;0.46;84.41
69589;SHT31;56792;50.644;17.984;2023-11-22T10:04:53;0.52;84.80
69589;SHT31;56792;50.644;17.984;2023-11-22T10:07:24;0.57;84.76
69589;SHT31;56792;50.644;17.984;2023-11-22T10:09:55;0.56;84.39
69589;SHT31;56792;50.644;17.984;2023-11-22T10:12:31;0.55;84.42
69589;SHT31;56792;50.644;17.984;2023-11-22T10:15:12;0.57;84.44
69589;SHT31;56792;50.644;17.984;2023-11-22T10:17:50;0.51;83.73
69589;SHT31;56792;50.644;17.984;2023-11-22T10:20:35;0.49;84.12
69589;SHT31;56792;50.644;17.984;2023-11-22T10:23:09;0.52;84.16
69589;SHT31;56792;50.644;17.984;2023-11-22T10:25:44;0.47;83.72
69589;SHT31;56792;50.644;17.984;2023-11-22T10:28:18;0.42;83.88
69589;SHT31;56792;50.644;17.984;2023-11-22T10:30:54;0.38;83.69
69589;SHT31;56792;50.644;17.984;2023-11-22T10:33:25;0.34;83.71
69589;SHT31;56792;50.644;17.984;2023-11-22T10:35:58;0.36;83.93
69589;SHT31;56792;50.644;17.984;2023-11-22T10:38:31;0.39;84.16
69589;SHT31;56792;50.644;17.984;2023-11-22T10:41:04;0.43;84.13
69589;SHT31;56792;50.644;17.984;2023-11-22T10:43:37;0.44;83.95
69589;SHT31;56792;50.644;17.984;2023-11-22T10:46:09;0.39;83.18
69589;SHT31;56792;50.644;17.984;2023-11-22T10:48:43;0.36;83.46
69589;SHT31;56792;50.644;17.984;2023-11-22T10:51:14;0.34;83.34
69589;SHT31;56792;50.644;17.984;2023-11-22T10:53:50;0.31;83.02
69589;SHT31;56792;50.644;17.984;2023-11-22T10:56:23;0.31;83.32
69589;SHT31;56792;50.644;17.984;2023-11-22T10:58:58;0.34;83.45
69589;SHT31;56792;50.644;17.984;2023-11-22T11:01:34;0.35;83.14
69589;SHT31;56792;50.644;17.984;2023-11-22T11:04:08;0.38;83.34
69589;SHT31;56792;50.644;17.984;2023-11-22T11:06:48;0.40;82.89
69589;SHT31;56792;50.644;17.984;2023-11-22T11:09:24;0.44;83.36
69589;SHT31;56792;50.644;17.984;2023-11-22T11:11:59;0.50;83.57
69589;SHT31;56792;50.644;17.984;2023-11-22T11:14:31;0.54;83.22
69589;SHT31;56792;50.644;17.984;2023-11-22T11:17:06;0.54;83.15
69589;SHT31;56792;50.644;17.984;2023-11-22T11:19:38;0.52;82.82
69589;SHT31;56792;50.644;17.984;2023-11-22T11:22:09;0.55;83.19
69589;SHT31;56792;50.644;17.984;2023-11-22T11:24:43;0.58;82.93
69589;SHT31;56792;50.644;17.984;2023-11-22T11:27:34;0.56;82.67
69589;SHT31;56792;50.644;17.984;2023-11-22T11:33:11;0.61;82.83
69589;SHT31;56792;50.644;17.984;2023-11-22T11:35:44;0.63;82.95
69589;SHT31;56792;50.644;17.984;2023-11-22T11:38:19;0.66;82.95
69589;SHT31;56792;50.644;17.984;2023-11-22T11:40:58;0.71;82.88
69589;SHT31;56792;50.644;17.984;2023-11-22T11:43:42;0.69;82.83
69589;SHT31;56792;50.644;17.984;2023-11-22T11:46:15;0.68;82.73
69589;SHT31;56792;50.644;17.984;2023-11-22T11:48:47;0.64;82.32
69589;SHT31;56792;50.644;17.984;2023-11-22T11:51:19;0.60;82.10
69589;SHT31;56792;50.644;17.984;2023-11-22T11:53:52;0.58;82.24
69589;SHT31;56792;50.644;17.984;2023-11-22T11:56:24;0.57;82.06
69589;SHT31;56792;50.644;17.984;2023-11-22T11:58:56;0.55;81.68
69589;SHT31;56792;50.644;17.984;2023-11-22T12:01:29;0.49;81.79
69589;SHT31;56792;50.644;17.984;2023-11-22T12:04:01;0.49;82.12
69589;SHT31;56792;50.644;17.984;2023-11-22T12:06:32;0.56;82.25
69589;SHT31;56792;50.644;17.984;2023-11-22T12:09:05;0.63;81.96
69589;SHT31;56792;50.644;17.984;2023-11-22T12:11:36;0.62;81.22
69589;SHT31;56792;50.644;17.984;2023-11-22T12:14:09;0.62;80.80
69589;SHT31;56792;50.644;17.984;2023-11-22T12:16:41;0.59;80.80
69589;SHT31;56792;50.644;17.984;2023-11-22T12:19:21;0.63;81.05
69589;SHT31;56792;50.644;17.984;2023-11-22T12:21:53;0.69;80.99
69589;SHT31;56792;50.644;17.984;2023-11-22T12:24:25;0.72;81.15
69589;SHT31;56792;50.644;17.984;2023-11-22T12:26:57;0.71;81.36
69589;SHT31;56792;50.644;17.984;2023-11-22T12:29:29;0.77;81.10
69589;SHT31;56792;50.644;17.984;2023-11-22T12:32:03;0.76;81.17
69589;SHT31;56792;50.644;17.984;2023-11-22T12:34:35;0.74;80.91
69589;SHT31;56792;50.644;17.984;2023-11-22T12:37:06;0.78;80.63
69589;SHT31;56792;50.644;17.984;2023-11-22T12:39:37;0.83;80.44
69589;SHT31;56792;50.644;17.984;2023-11-22T12:42:09;0.87;80.52
69589;SHT31;56792;50.644;17.984;2023-11-22T12:44:49;0.87;79.86
69589;SHT31;56792;50.644;17.984;2023-11-22T12:47:31;0.80;79.66
69589;SHT31;56792;50.644;17.984;2023-11-22T12:50:03;0.85;79.84
69589;SHT31;56792;50.644;17.984;2023-11-22T12:52:56;0.89;79.48
69589;SHT31;56792;50.644;17.984;2023-11-22T12:55:27;0.89;79.19
69589;SHT31;56792;50.644;17.984;2023-11-22T12:57:58;0.90;78.59
69589;SHT31;56792;50.644;17.984;2023-11-22T13:00:30;0.94;78.65
69589;SHT31;56792;50.644;17.984;2023-11-22T13:03:01;0.91;77.67
69589;SHT31;56792;50.644;17.984;2023-11-22T13:05:32;0.88;77.90
69589;SHT31;56792;50.644;17.984;2023-11-22T13:08:03;0.85;77.94
69589;SHT31;56792;50.644;17.984;2023-11-22T13:10:37;0.79;77.89
69589;SHT31;56792;50.644;17.984;2023-11-22T13:13:10;0.79;77.93
69589;SHT31;56792;50.644;17.984;2023-11-22T13:15:42;0.70;76.13
69589;SHT31;56792;50.644;17.984;2023-11-22T13:18:13;0.68;76.74
69589;SHT31;56792;50.644;17.984;2023-11-22T13:20:44;0.69;77.01
69589;SHT31;56792;50.644;17.984;2023-11-22T13:23:16;0.71;76.86
69589;SHT31;56792;50.644;17.984;2023-11-22T13:25:47;0.71;76.97
69589;SHT31;56792;50.644;17.984;2023-11-22T13:28:18;0.72;77.51
69589;SHT31;56792;50.644;17.984;2023-11-22T13:30:51;0.73;77.80
69589;SHT31;56792;50.644;17.984;2023-11-22T13:33:22;0.72;77.92
69589;SHT31;56792;50.644;17.984;2023-11-22T13:35:54;0.73;77.98
69589;SHT31;56792;50.644;17.984;2023-11-22T13:38:25;0.76;77.94
69589;SHT31;56792;50.644;17.984;2023-11-22T13:40:56;0.72;77.82
69589;SHT31;56792;50.644;17.984;2023-11-22T13:43:28;0.69;78.12
69589;SHT31;56792;50.644;17.984;2023-11-22T13:46:01;0.69;77.76
69589;SHT31;56792;50.644;17.984;2023-11-22T13:48:36;0.68;78.44
69589;SHT31;56792;50.644;17.984;2023-11-22T13:51:07;0.70;78.42
69589;SHT31;56792;50.644;17.984;2023-11-22T13:53:38;0.69;78.19
69589;SHT31;56792;50.644;17.984;2023-11-22T13:56:15;0.64;77.94
69589;SHT31;56792;50.644;17.984;2023-11-22T13:58:46;0.60;78.16
69589;SHT31;56792;50.644;17.984;2023-11-22T14:01:17;0.54;77.91
69589;SHT31;56792;50.644;17.984;2023-11-22T14:03:48;0.53;78.09
69589;SHT31;56792;50.644;17.984;2023-11-22T14:06:20;0.53;78.12
69589;SHT31;56792;50.644;17.984;2023-11-22T14:08:51;0.54;77.44
69589;SHT31;56792;50.644;17.984;2023-11-22T14:11:22;0.55;77.07
69589;SHT31;56792;50.644;17.984;2023-11-22T14:13:53;0.52;75.57
69589;SHT31;56792;50.644;17.984;2023-11-22T14:16:26;0.48;76.30
69589;SHT31;56792;50.644;17.984;2023-11-22T14:18:58;0.52;76.74
69589;SHT31;56792;50.644;17.984;2023-11-22T14:21:29;0.56;76.57
69589;SHT31;56792;50.644;17.984;2023-11-22T14:24:00;0.60;76.89
69589;SHT31;56792;50.644;17.984;2023-11-22T14:26:32;0.62;77.00
69589;SHT31;56792;50.644;17.984;2023-11-22T14:29:03;0.60;76.72
69589;SHT31;56792;50.644;17.984;2023-11-22T14:31:34;0.62;77.41
69589;SHT31;56792;50.644;17.984;2023-11-22T14:34:05;0.65;77.84
69589;SHT31;56792;50.644;17.984;2023-11-22T14:36:38;0.65;78.28
69589;SHT31;56792;50.644;17.984;2023-11-22T14:39:10;0.64;78.18
69589;SHT31;56792;50.644;17.984;2023-11-22T14:41:41;0.63;78.12
69589;SHT31;56792;50.644;17.984;2023-11-22T14:44:12;0.60;78.25
69589;SHT31;56792;50.644;17.984;2023-11-22T14:46:44;0.59;78.92
69589;SHT31;56792;50.644;17.984;2023-11-22T14:49:16;0.60;79.17
69589;SHT31;56792;50.644;17.984;2023-11-22T14:51:47;0.54;78.38
69589;SHT31;56792;50.644;17.984;2023-11-22T14:54:19;0.51;77.95
69589;SHT31;56792;50.644;17.984;2023-11-22T14:56:50;0.48;77.12
69589;SHT31;56792;50.644;17.984;2023-11-22T14:59:22;0.46;76.47
69589;SHT31;56792;50.644;17.984;2023-11-22T15:01:55;0.47;76.67
69589;SHT31;56792;50.644;17.984;2023-11-22T15:04:26;0.47;77.02
69589;SHT31;56792;50.644;17.984;2023-11-22T15:06:58;0.48;76.95
69589;SHT31;56792;50.644;17.984;2023-11-22T15:09:29;0.49;77.31
69589;SHT31;56792;50.644;17.984;2023-11-22T15:12:00;0.50;77.12
69589;SHT31;56792;50.644;17.984;2023-11-22T15:14:31;0.47;76.55
69589;SHT31;56792;50.644;17.984;2023-11-22T15:17:03;0.47;75.90
69589;SHT31;56792;50.644;17.984;2023-11-22T15:19:34;0.45;75.33
69589;SHT31;56792;50.644;17.984;2023-11-22T15:22:05;0.45;75.02
69589;SHT31;56792;50.644;17.984;2023-11-22T15:24:36;0.43;74.72
69589;SHT31;56792;50.644;17.984;2023-11-22T15:27:07;0.40;75.16
69589;SHT31;56792;50.644;17.984;2023-11-22T15:29:39;0.39;75.70
69589;SHT31;56792;50.644;17.984;2023-11-22T15:32:10;0.40;76.40
69589;SHT31;56792;50.644;17.984;2023-11-22T15:34:41;0.40;76.27
69589;SHT31;56792;50.644;17.984;2023-11-22T15:37:12;0.38;75.29
69589;SHT31;56792;50.644;17.984;2023-11-22T15:39:43;0.34;75.06
69589;SHT31;56792;50.644;17.984;2023-11-22T15:42:14;0.32;75.16
69589;SHT31;56792;50.644;17.984;2023-11-22T15:44:45;0.30;75.51
69589;SHT31;56792;50.644;17.984;2023-11-22T15:47:18;0.31;75.91
69589;SHT31;56792;50.644;17.984;2023-11-22T15:49:49;0.32;75.85
69589;SHT31;56792;50.644;17.984;2023-11-22T15:52:21;0.33;75.22
69589;SHT31;56792;50.644;17.984;2023-11-22T15:54:53;0.34;75.16
69589;SHT31;56792;50.644;17.984;2023-11-22T15:57:24;0.34;74.76
69589;SHT31;56792;50.644;17.984;2023-11-22T15:59:55;0.35;74.74
69589;SHT31;56792;50.644;17.984;2023-11-22T16:02:26;0.38;75.51